Time;durP1;ratioP1;P1;durP2;ratioP2;P2;SDS_P1;SDS_P2;PMS_P1;PMS_P2;Temp;Humidity;BMP_temperature;BMP_pressure;BME280_temperature;BME280_humidity;BME280_pressure;Samples;Min_cycle;Max_cycle;Signal;HPM_P1;HPM_P2
2021/12/23 00:01:50;;;;;;;21.17;11.45;;;2.30;89.50;;;0.37;82.14;100699.22;4986223;28;20421;-86
2021/12/23 00:04:17;;;;;;;20.23;11.65;;;2.20;89.30;;;0.41;82.71;100696.34;4989009;28;20061;-86
2021/12/23 00:06:44;;;;;;;21.58;11.48;;;2.20;89.40;;;0.37;81.95;100690.34;4988944;28;20129;-86
2021/12/23 00:11:39;;;;;;;21.02;11.60;;;2.20;89.30;;;0.29;81.85;100645.41;4997882;28;20076;-85
2021/12/23 00:14:09;;;;;;;21.95;11.75;;;2.20;89.20;;;0.34;81.96;100643.25;4988979;28;20592;-84
2021/12/23 00:16:46;;;;;;;21.52;11.70;;;2.20;88.80;;;0.36;81.15;100641.31;4988844;28;20074;-85
2021/12/23 00:19:35;;;;;;;21.17;12.00;;;2.20;88.60;;;0.39;81.30;100650.94;4988861;28;20133;-85
2021/12/23 00:24:49;;;;;;;21.35;12.45;;;2.20;89.10;;;0.48;82.78;100644.88;4988902;28;20068;-85
2021/12/23 00:27:16;;;;;;;24.10;13.07;;;2.20;88.70;;;0.46;80.57;100645.94;4988778;28;20100;-85
2021/12/23 00:29:45;;;;;;;21.67;12.43;;;2.20;88.60;;;0.49;81.47;100653.75;4988931;28;20450;-85
2021/12/23 00:32:12;;;;;;;22.33;12.60;;;2.20;89.00;;;0.51;81.58;100646.47;4987913;28;20387;-85
2021/12/23 00:34:40;;;;;;;20.42;11.85;;;2.20;88.10;;;0.53;81.42;100639.16;4988924;28;20046;-85
2021/12/23 00:37:10;;;;;;;22.23;12.82;;;2.20;88.60;;;0.53;80.53;100637.38;4988166;28;20077;-85
2021/12/23 00:39:37;;;;;;;20.58;12.45;;;2.20;88.50;;;0.55;81.36;100631.88;4988209;28;20042;-85
2021/12/23 00:42:08;;;;;;;25.45;13.43;;;2.30;88.40;;;0.57;81.66;100633.47;4988171;28;20049;-85
2021/12/23 00:44:39;;;;;;;24.65;13.63;;;2.30;88.90;;;0.59;81.11;100614.59;4988382;28;20089;-85
2021/12/23 00:47:08;;;;;;;24.35;12.57;;;2.30;88.80;;;0.59;80.87;100601.19;5003529;28;20061;-86
2021/12/23 00:49:35;;;;;;;22.88;12.25;;;2.30;88.80;;;0.59;81.78;100598.53;4970619;28;20038;-85
2021/12/23 00:52:05;;;;;;;21.52;12.70;;;2.30;88.70;;;0.63;81.95;100586.63;4988198;28;20471;-85
2021/12/23 00:54:32;;;;;;;21.42;12.30;;;2.30;88.10;;;0.65;82.33;100587.38;4988755;28;20093;-85
2021/12/23 00:56:59;;;;;;;25.35;13.15;;;2.30;88.70;;;0.63;81.06;100581.28;4988049;28;20152;-86
2021/12/23 00:59:27;;;;;;;23.70;13.18;;;2.30;88.00;;;0.64;81.52;100564.22;4987916;28;20074;-85
2021/12/23 01:01:55;;;;;;;22.77;12.82;;;2.30;88.70;;;0.69;81.96;100558.53;4987692;28;20668;-85
2021/12/23 01:04:23;;;;;;;21.95;12.65;;;2.30;88.50;;;0.69;80.46;100556.69;4988490;28;20070;-85
2021/12/23 01:06:50;;;;;;;27.92;14.00;;;2.30;88.60;;;0.70;81.17;100562.88;4987951;28;20092;-85
2021/12/23 01:09:18;;;;;;;21.48;13.07;;;2.30;88.10;;;0.74;81.14;100561.66;4988147;28;20125;-85
2021/12/23 01:11:47;;;;;;;23.80;13.05;;;2.30;88.20;;;0.73;81.14;100547.44;4970332;28;20078;-85
2021/12/23 01:14:27;;;;;;;22.75;12.38;;;2.40;88.50;;;0.68;81.47;100549.59;4987968;28;20124;-85
2021/12/23 01:17:23;;;;;;;24.33;13.52;;;2.40;88.90;;;0.66;81.83;100538.16;5003278;28;20108;-85
2021/12/23 01:19:54;;;;;;;22.77;13.48;;;2.40;89.20;;;0.71;82.56;100536.00;4987944;28;20038;-85
2021/12/23 01:22:23;;;;;;;23.50;13.05;;;2.40;89.10;;;0.73;82.46;100552.78;4987130;28;20052;-85
2021/12/23 01:24:52;;;;;;;22.80;12.68;;;2.40;89.10;;;0.72;81.48;100535.03;4987999;28;20078;-85
2021/12/23 01:27:19;;;;;;;24.02;13.10;;;2.40;89.20;;;0.70;81.83;100531.59;4987743;28;20081;-85
2021/12/23 01:29:46;;;;;;;22.25;13.15;;;2.40;89.00;;;0.72;81.79;100527.00;4988194;28;20066;-86
2021/12/23 01:32:14;;;;;;;21.75;12.88;;;2.40;89.10;;;0.71;81.16;100535.16;4987577;28;20058;-85
2021/12/23 01:34:41;;;;;;;22.08;13.23;;;2.50;89.50;;;0.70;82.27;100510.16;4988099;28;20085;-85
2021/12/23 01:37:09;;;;;;;23.48;14.50;;;2.40;89.50;;;0.73;81.28;100506.41;4988261;28;20038;-85
2021/12/23 01:39:37;;;;;;;22.67;13.07;;;2.40;89.30;;;0.76;82.45;100509.69;4988110;28;20117;-85
2021/12/23 01:42:05;;;;;;;23.10;13.70;;;2.40;89.30;;;0.78;82.03;100502.41;4987381;28;20056;-85
2021/12/23 01:44:32;;;;;;;24.27;13.48;;;2.40;89.30;;;0.73;82.02;100490.34;4988539;28;20506;-85
2021/12/23 01:46:59;;;;;;;26.05;13.98;;;2.50;89.30;;;0.68;82.34;100490.69;4987887;28;20046;-85
2021/12/23 01:49:27;;;;;;;23.95;13.32;;;2.50;89.50;;;0.69;82.15;100465.63;4987960;28;20097;-85
2021/12/23 01:51:54;;;;;;;25.33;14.50;;;2.40;89.00;;;0.73;82.28;100469.75;4987564;28;20061;-85
2021/12/23 01:54:23;;;;;;;25.00;14.00;;;2.40;89.10;;;0.77;82.64;100463.19;4988118;28;20093;-85
2021/12/23 01:56:51;;;;;;;22.38;13.68;;;2.40;89.40;;;0.78;81.94;100480.97;4987278;28;20042;-85
2021/12/23 01:59:19;;;;;;;27.20;14.38;;;2.50;89.00;;;0.82;81.60;100489.63;4987590;28;20136;-85
2021/12/23 02:01:46;;;;;;;25.85;14.32;;;2.50;88.90;;;0.80;81.65;100488.00;4987266;28;20130;-85
2021/12/23 02:04:13;;;;;;;29.17;14.32;;;2.50;89.30;;;0.71;82.18;100471.72;4987964;28;20132;-85
2021/12/23 02:06:40;;;;;;;25.25;14.25;;;2.50;89.20;;;0.72;82.88;100470.75;4988095;28;20042;-85
2021/12/23 02:09:08;;;;;;;21.90;13.18;;;2.50;89.60;;;0.73;82.54;100472.44;4987304;28;20129;-85
2021/12/23 02:11:37;;;;;;;22.90;13.77;;;2.40;89.20;;;0.73;82.66;100488.50;4989634;28;20549;-85
2021/12/23 02:14:04;;;;;;;22.92;13.50;;;2.40;89.40;;;0.73;82.81;100480.47;4990950;28;20094;-85
2021/12/23 02:16:31;;;;;;;24.60;13.25;;;2.40;89.90;;;0.71;82.57;100487.78;4991344;28;20133;-85
2021/12/23 02:18:58;;;;;;;24.85;14.63;;;2.50;89.70;;;0.72;82.42;100483.25;4990627;28;20131;-85
2021/12/23 02:21:27;;;;;;;25.40;14.38;;;2.50;89.80;;;0.67;82.21;100472.94;4988453;28;20446;-85
2021/12/23 02:23:54;;;;;;;25.55;14.95;;;2.40;89.70;;;0.69;83.10;100475.50;4990061;28;20074;-85
2021/12/23 02:26:22;;;;;;;23.40;13.98;;;2.40;90.00;;;0.70;83.40;100470.00;4990924;28;20134;-85
2021/12/23 02:28:49;;;;;;;24.98;14.68;;;2.40;90.30;;;0.72;83.24;100465.41;4990989;28;20054;-85
2021/12/23 02:31:16;;;;;;;25.77;15.02;;;2.40;90.30;;;0.72;82.87;100462.72;4990679;28;20105;-84
2021/12/23 02:33:44;;;;;;;25.63;14.38;;;2.40;89.90;;;0.70;83.09;100456.59;4990857;28;20046;-85
2021/12/23 02:36:11;;;;;;;24.67;14.18;;;2.40;90.10;;;0.74;83.35;100452.72;4990371;28;20125;-86
2021/12/23 02:38:40;;;;;;;25.23;14.68;;;2.40;90.10;;;0.78;83.58;100448.81;4973573;28;20136;-85
2021/12/23 02:41:07;;;;;;;26.08;15.32;;;2.50;90.50;;;0.84;83.39;100450.16;4990073;28;20109;-85
2021/12/23 02:43:36;;;;;;;26.98;15.10;;;2.50;90.60;;;0.87;83.19;100441.00;4990666;28;20045;-85
2021/12/23 02:46:04;;;;;;;23.50;14.43;;;2.50;90.40;;;0.89;83.17;100439.06;4990237;28;20052;-85
2021/12/23 02:48:38;;;;;;;26.27;15.27;;;2.50;90.30;;;0.92;83.68;100428.09;4990801;28;21016;-85
2021/12/23 02:51:10;;;;;;;27.70;15.52;;;2.50;90.60;;;0.97;83.98;100428.56;4990622;28;20109;-85
2021/12/23 02:53:40;;;;;;;26.92;14.93;;;2.60;90.60;;;1.01;83.78;100422.00;4990177;28;20061;-85
2021/12/23 02:56:11;;;;;;;28.02;15.80;;;2.60;90.50;;;1.04;83.58;100402.97;4989836;28;20137;-85
2021/12/23 02:58:38;;;;;;;25.13;15.30;;;2.60;90.50;;;1.05;83.41;100411.84;4989925;28;20546;-85
2021/12/23 03:01:09;;;;;;;25.45;15.45;;;2.60;90.50;;;1.07;84.18;100426.84;4989893;28;20057;-85
2021/12/23 03:03:37;;;;;;;26.90;15.68;;;2.60;90.80;;;1.08;83.50;100427.69;4990267;28;20038;-86
2021/12/23 03:06:05;;;;;;;26.27;15.52;;;2.70;90.90;;;1.04;83.97;100437.81;4989920;28;20561;-85
2021/12/23 03:08:35;;;;;;;24.77;14.93;;;2.70;91.20;;;1.06;84.37;100441.22;4990326;28;20046;-85
2021/12/23 03:11:04;;;;;;;28.95;15.70;;;2.70;91.50;;;1.03;83.95;100441.47;4989682;28;20046;-85
2021/12/23 03:13:32;;;;;;;27.27;16.15;;;2.80;91.20;;;1.05;84.45;100428.81;4990130;28;20176;-85
2021/12/23 03:16:00;;;;;;;27.48;15.80;;;2.70;91.10;;;1.06;85.10;100417.09;4989513;28;20100;-85
2021/12/23 03:18:28;;;;;;;27.50;15.40;;;2.80;91.30;;;1.07;84.46;100432.22;4988013;28;20067;-86
2021/12/23 03:20:56;;;;;;;25.48;15.40;;;2.80;91.40;;;1.14;84.30;100435.22;4989867;28;20129;-85
2021/12/23 03:23:24;;;;;;;27.73;16.08;;;2.80;91.30;;;1.12;84.46;100423.78;4989273;28;20045;-85
2021/12/23 03:25:52;;;;;;;26.65;15.73;;;2.80;91.20;;;1.12;85.24;100415.75;4989595;28;20078;-85
2021/12/23 03:28:20;;;;;;;29.33;15.80;;;2.80;91.70;;;1.10;85.14;100429.25;4990413;28;20053;-85
2021/12/23 03:30:48;;;;;;;25.42;15.13;;;2.80;91.70;;;1.10;84.90;100426.56;4989661;28;20132;-85
2021/12/23 03:33:16;;;;;;;30.45;14.93;;;2.80;91.40;;;1.05;84.96;100418.09;4989354;28;20046;-86
2021/12/23 03:35:43;;;;;;;26.17;14.68;;;2.80;91.30;;;1.08;84.98;100420.50;4989328;28;20077;-85
2021/12/23 03:38:11;;;;;;;27.63;16.27;;;2.80;91.40;;;1.10;85.58;100412.34;4989032;28;20125;-85
2021/12/23 03:40:38;;;;;;;27.52;16.70;;;2.80;91.60;;;1.10;85.76;100407.81;4968933;28;20443;-85
2021/12/23 03:43:06;;;;;;;30.38;16.20;;;2.80;91.80;;;1.12;85.39;100413.94;4989327;28;20046;-85
2021/12/23 03:45:35;;;;;;;27.90;15.90;;;2.80;91.90;;;1.10;85.38;100421.22;4989519;28;20125;-86
2021/12/23 03:48:02;;;;;;;30.58;17.15;;;2.80;91.60;;;1.03;85.72;100398.59;4989414;28;20052;-86
2021/12/23 03:50:29;;;;;;;26.58;15.32;;;2.80;91.70;;;1.08;85.81;100384.81;4971195;28;20058;-85
2021/12/23 03:52:57;;;;;;;29.58;16.65;;;2.80;92.00;;;1.12;85.87;100387.13;4989274;28;20046;-85
2021/12/23 03:55:25;;;;;;;30.85;17.10;;;2.80;92.20;;;1.12;86.04;100394.28;4988983;28;20491;-86
2021/12/23 03:57:52;;;;;;;29.08;17.35;;;2.80;92.20;;;1.12;86.11;100408.56;4972011;28;20090;-85
2021/12/23 04:00:22;;;;;;;29.52;17.55;;;2.90;92.40;;;1.15;86.19;100402.09;4989528;28;20351;-85
2021/12/23 04:02:52;;;;;;;26.05;15.32;;;2.80;92.50;;;1.07;86.18;100416.13;4989151;28;20590;-85
2021/12/23 04:05:21;;;;;;;29.67;17.00;;;2.80;92.40;;;1.02;86.51;100407.59;4989301;28;20074;-85
2021/12/23 04:07:49;;;;;;;33.35;17.83;;;2.80;92.50;;;0.96;86.18;100408.13;4989247;28;20085;-86
2021/12/23 04:10:21;;;;;;;29.20;16.45;;;2.70;92.50;;;0.93;86.85;100408.34;4988481;28;20129;-85
2021/12/23 04:12:49;;;;;;;32.10;17.13;;;2.60;92.70;;;0.89;86.55;100412.25;4988730;28;20046;-85
2021/12/23 04:15:17;;;;;;;33.60;18.20;;;2.70;92.80;;;0.81;87.53;100402.19;4989185;28;20088;-85
2021/12/23 04:17:44;;;;;;;28.42;17.35;;;2.60;92.90;;;0.78;87.50;100395.25;4989087;28;20068;-85
2021/12/23 04:20:18;;;;;;;34.25;18.38;;;2.60;93.00;;;0.76;87.21;100375.78;4987521;28;20050;-86
2021/12/23 04:22:46;;;;;;;29.30;17.58;;;2.60;92.80;;;0.73;87.50;100376.00;4987026;28;20418;-86
2021/12/23 04:25:16;;;;;;;30.45;17.85;;;2.60;93.00;;;0.76;87.55;100369.53;4988368;28;20086;-85
2021/12/23 04:27:44;;;;;;;31.25;18.20;;;2.60;93.20;;;0.76;87.53;100365.06;4988333;28;20137;-85
2021/12/23 04:30:12;;;;;;;31.80;17.83;;;2.50;93.30;;;0.76;87.68;100356.16;4988872;28;20054;-85
2021/12/23 04:32:40;;;;;;;31.42;17.38;;;2.60;93.20;;;0.77;87.84;100356.03;4987876;28;20077;-85
2021/12/23 04:35:09;;;;;;;30.52;18.10;;;2.60;93.20;;;0.82;88.02;100344.97;4988437;28;20082;-85
2021/12/23 04:37:38;;;;;;;30.65;17.70;;;2.60;93.20;;;0.86;87.90;100346.41;4988377;28;20438;-86
2021/12/23 04:40:09;;;;;;;33.45;18.13;;;2.50;93.50;;;0.85;87.75;100339.31;4988103;28;20038;-85
2021/12/23 04:42:37;;;;;;;34.90;19.10;;;2.50;93.40;;;0.81;87.53;100334.38;4988384;28;20054;-85
2021/12/23 04:45:07;;;;;;;32.83;18.48;;;2.50;93.40;;;0.73;87.04;100327.81;4988272;28;20054;-85
2021/12/23 04:47:35;;;;;;;39.92;20.25;;;2.50;93.20;;;0.72;87.63;100331.47;4988767;28;20070;-85
2021/12/23 04:50:04;;;;;;;33.65;18.73;;;2.50;93.20;;;0.72;87.80;100347.53;4987910;28;20125;-85
2021/12/23 04:52:31;;;;;;;36.72;19.15;;;2.50;93.30;;;0.69;87.18;100333.56;4987389;28;20046;-86
2021/12/23 04:55:00;;;;;;;33.42;18.27;;;2.50;93.20;;;0.67;87.97;100331.00;4988525;28;20089;-86
2021/12/23 04:57:27;;;;;;;32.90;18.42;;;2.40;93.30;;;0.59;87.81;100330.75;4988096;28;20138;-85
2021/12/23 04:59:55;;;;;;;31.30;18.52;;;2.40;93.30;;;0.58;88.28;100323.69;4970652;28;20077;-85
2021/12/23 05:02:22;;;;;;;34.20;18.52;;;2.40;93.10;;;0.57;88.33;100327.34;4987709;28;20065;-85
2021/12/23 05:04:50;;;;;;;32.47;18.27;;;2.40;93.40;;;0.55;87.83;100318.59;4988522;28;20077;-85
2021/12/23 05:07:18;;;;;;;31.65;18.17;;;2.40;93.40;;;0.51;88.37;100301.06;4987773;28;20621;-82
2021/12/23 05:09:46;;;;;;;31.67;18.20;;;2.40;93.50;;;0.52;88.75;100300.13;4987584;28;20057;-80
2021/12/23 05:12:14;;;;;;;34.92;19.48;;;2.30;93.60;;;0.48;88.90;100296.00;4987538;28;20056;-80
2021/12/23 05:14:42;;;;;;;33.15;18.77;;;2.30;93.60;;;0.46;88.44;100287.19;4988228;28;20076;-78
2021/12/23 05:17:09;;;;;;;34.65;19.00;;;2.30;93.80;;;0.49;88.73;100273.56;4987077;28;20073;-79
2021/12/23 05:19:36;;;;;;;33.20;19.10;;;2.30;93.90;;;0.49;89.03;100257.50;4988186;28;20042;-79
2021/12/23 05:22:04;;;;;;;34.13;19.17;;;2.30;94.00;;;0.46;88.98;100265.78;4987839;28;20046;-79
2021/12/23 05:24:32;;;;;;;34.05;18.45;;;2.30;93.80;;;0.45;89.00;100274.81;4988190;28;20074;-79
2021/12/23 05:27:00;;;;;;;34.58;19.38;;;2.30;93.90;;;0.43;88.94;100282.13;4987442;28;20046;-79
2021/12/23 05:29:29;;;;;;;33.53;18.60;;;2.30;93.70;;;0.42;88.79;100264.34;4987533;28;20684;-79
2021/12/23 05:31:56;;;;;;;34.40;18.92;;;2.30;93.90;;;0.40;88.88;100256.47;4987606;28;20076;-79
2021/12/23 05:34:23;;;;;;;32.58;19.05;;;2.30;93.70;;;0.39;89.34;100250.22;4988102;28;20141;-79
2021/12/23 05:36:51;;;;;;;32.20;18.00;;;2.30;93.90;;;0.40;89.79;100251.09;4987699;28;20050;-80
2021/12/23 05:39:18;;;;;;;34.65;19.25;;;2.30;94.20;;;0.43;89.85;100250.00;4987144;28;20536;-79
2021/12/23 05:41:45;;;;;;;33.40;18.35;;;2.30;94.40;;;0.51;89.98;100247.53;4987689;28;20660;-79
2021/12/23 05:44:12;;;;;;;37.00;19.63;;;2.30;94.40;;;0.51;89.38;100242.16;4987768;28;20494;-79
2021/12/23 05:46:41;;;;;;;34.22;18.23;;;2.30;94.30;;;0.59;89.41;100234.34;4990305;28;20137;-79
2021/12/23 05:49:09;;;;;;;35.72;19.30;;;2.30;94.50;;;0.59;89.36;100247.72;4991803;28;20046;-79
2021/12/23 05:51:36;;;;;;;36.30;19.80;;;2.30;94.40;;;0.65;89.07;100251.72;4991231;28;20050;-80
2021/12/23 05:54:04;;;;;;;33.38;19.15;;;2.60;94.20;;;0.66;89.01;100234.69;4991356;28;20073;-79
2021/12/23 05:56:31;;;;;;;31.95;18.30;;;2.40;94.20;;;0.66;89.66;100219.47;4991958;28;20046;-79
2021/12/23 05:58:59;;;;;;;31.88;17.73;;;2.40;94.20;;;0.64;88.97;100237.50;4991025;28;20048;-79
2021/12/23 06:01:26;;;;;;;32.90;17.90;;;2.40;93.80;;;0.66;88.95;100234.69;4991131;28;20881;-79
2021/12/23 06:03:55;;;;;;;32.15;17.75;;;2.50;94.10;;;0.73;89.19;100243.94;4991373;28;20116;-79
2021/12/23 06:06:22;;;;;;;33.33;19.17;;;2.50;94.10;;;0.75;89.29;100245.50;4991299;28;20046;-79
2021/12/23 06:08:50;;;;;;;32.25;18.45;;;2.50;93.80;;;0.74;89.00;100241.13;4990875;28;20046;-79
2021/12/23 06:11:17;;;;;;;34.30;18.17;;;2.50;93.90;;;0.78;89.03;100234.53;5017361;22;20049;-79
2021/12/23 06:13:44;;;;;;;35.03;19.08;;;2.60;94.00;;;0.78;88.69;100230.97;5010082;28;20569;-82
2021/12/23 06:16:11;;;;;;;33.65;18.38;;;2.60;93.80;;;0.80;88.83;100221.03;5010388;28;20130;-77
2021/12/23 06:18:39;;;;;;;36.85;19.80;;;2.60;94.00;;;0.84;89.40;100216.22;5010944;28;20073;-86
2021/12/23 06:21:07;;;;;;;42.53;22.00;;;2.60;94.00;;;0.88;88.80;100225.72;5007971;28;20529;-83
2021/12/23 06:23:35;;;;;;;37.10;20.40;;;2.60;94.00;;;0.89;89.36;100224.72;5010265;28;20073;-77
2021/12/23 06:26:02;;;;;;;34.00;19.15;;;2.60;93.90;;;0.91;88.99;100220.09;5010073;28;20132;-78
2021/12/23 06:28:30;;;;;;;34.42;18.75;;;2.60;93.90;;;0.90;88.77;100221.94;5010661;28;20128;-79
2021/12/23 06:30:57;;;;;;;35.33;19.88;;;2.60;93.80;;;0.96;89.06;100225.91;4990345;28;20145;-78
2021/12/23 06:33:24;;;;;;;33.65;18.33;;;2.60;93.90;;;0.93;88.35;100235.06;5009490;28;20077;-78
2021/12/23 06:35:52;;;;;;;35.47;19.95;;;2.70;94.00;;;0.93;89.30;100213.66;5010623;28;20060;-80
2021/12/23 06:38:20;;;;;;;38.25;21.45;;;2.70;94.00;;;0.97;88.76;100217.75;5009852;28;20096;-80
2021/12/23 06:40:48;;;;;;;36.75;20.50;;;2.60;93.90;;;1.01;88.69;100217.47;5010250;28;20107;-79
2021/12/23 06:43:15;;;;;;;38.10;20.80;;;2.70;94.00;;;0.99;88.48;100209.59;5009915;28;20132;-79
2021/12/23 06:45:42;;;;;;;39.05;21.05;;;2.70;93.90;;;1.00;89.11;100205.91;5010259;28;20177;-79
2021/12/23 06:48:09;;;;;;;35.78;20.05;;;2.70;94.00;;;1.00;87.98;100205.91;5010171;28;20524;-79
2021/12/23 06:50:36;;;;;;;40.53;19.40;;;2.70;93.60;;;0.97;87.67;100203.50;5010538;28;20096;-79
2021/12/23 06:53:04;;;;;;;35.00;18.60;;;2.70;93.50;;;0.95;87.90;100208.13;5009962;28;20045;-78
2021/12/23 06:55:33;;;;;;;32.17;19.05;;;2.70;93.60;;;0.94;88.72;100206.44;5009704;28;20057;-76
2021/12/23 06:58:00;;;;;;;32.25;18.58;;;2.70;93.30;;;0.98;88.76;100207.88;5008907;28;20609;-77
2021/12/23 07:00:30;;;;;;;35.92;19.00;;;2.70;93.50;;;0.99;88.79;100198.88;5009647;28;20572;-76
2021/12/23 07:02:57;;;;;;;37.25;19.50;;;2.70;94.00;;;1.02;88.37;100197.75;5009230;28;20137;-76
2021/12/23 07:05:25;;;;;;;32.80;19.55;;;2.70;93.30;;;1.03;88.57;100199.44;5008380;28;20046;-76
2021/12/23 07:07:56;;;;;;;38.22;20.23;;;2.70;93.90;;;1.04;88.49;100187.75;5009463;28;20132;-76
2021/12/23 07:10:26;;;;;;;35.15;18.92;;;2.70;94.00;;;1.02;88.14;100193.25;5008051;28;20415;-76
2021/12/23 07:12:56;;;;;;;33.33;18.35;;;2.70;93.80;;;1.00;88.64;100195.19;5009357;28;20132;-77
2021/12/23 07:15:24;;;;;;;40.55;19.63;;;2.70;93.80;;;1.00;88.43;100195.19;5009182;28;20064;-76
2021/12/23 07:17:53;;;;;;;36.67;19.75;;;2.70;94.00;;;1.00;88.02;100194.34;5009667;28;20048;-76
2021/12/23 07:20:20;;;;;;;35.47;19.55;;;2.70;93.70;;;0.97;87.57;100200.81;5008791;28;20081;-76
2021/12/23 07:22:48;;;;;;;36.20;20.10;;;2.70;93.70;;;0.97;88.60;100188.28;5009605;28;20049;-77
2021/12/23 07:25:15;;;;;;;35.90;19.63;;;2.70;93.50;;;0.93;87.88;100173.47;4991415;28;20417;-76
2021/12/23 07:27:45;;;;;;;37.95;20.42;;;2.80;93.60;;;0.96;88.36;100183.91;5008941;28;20160;-76
2021/12/23 07:30:18;;;;;;;37.30;19.50;;;2.80;93.70;;;0.96;88.80;100178.53;5008871;28;20086;-75
2021/12/23 07:32:46;;;;;;;38.95;19.52;;;2.70;93.40;;;0.93;88.73;100173.47;5008203;28;20129;-81
2021/12/23 07:35:14;;;;;;;38.03;20.20;;;2.80;93.80;;;0.94;88.40;100179.66;5008835;28;20443;-76
2021/12/23 07:37:42;;;;;;;38.58;20.88;;;2.80;93.60;;;0.99;89.09;100190.84;5008548;28;20558;-76
2021/12/23 07:40:13;;;;;;;34.50;19.38;;;2.80;93.80;;;0.94;89.22;100190.38;5007495;28;20052;-77
2021/12/23 07:42:51;;;;;;;39.05;20.23;;;2.80;93.80;;;0.92;89.59;100192.34;5008548;28;20402;-77
2021/12/23 07:45:21;;;;;;;38.45;20.48;;;2.80;93.90;;;0.93;89.72;100205.59;5009614;28;20138;-79
2021/12/23 07:47:48;;;;;;;35.70;20.45;;;2.80;94.10;;;0.99;90.15;100209.59;5008673;28;20104;-79
2021/12/23 07:50:15;;;;;;;38.85;21.20;;;2.80;94.30;;;1.02;89.69;100209.31;5007875;28;20045;-79
2021/12/23 07:52:43;;;;;;;35.88;20.75;;;2.70;94.20;;;1.01;89.71;100206.75;5008145;28;20070;-78
2021/12/23 07:55:11;;;;;;;35.97;19.38;;;2.70;94.20;;;0.96;89.12;100202.66;5008779;28;20042;-76
2021/12/23 07:57:38;;;;;;;37.70;19.65;;;2.70;93.90;;;0.97;89.45;100201.69;4990751;28;20140;-77
2021/12/23 08:00:08;;;;;;;37.17;20.02;;;2.70;93.90;;;1.01;89.92;100191.56;5008802;28;20085;-76
2021/12/23 08:02:44;;;;;;;38.65;20.83;;;2.80;94.00;;;1.07;89.35;100192.88;5008628;28;20049;-84
2021/12/23 08:05:12;;;;;;;38.63;20.63;;;2.80;93.90;;;1.04;89.14;100196.63;5003124;28;20092;-81
2021/12/23 08:07:39;;;;;;;36.83;18.80;;;2.80;94.10;;;1.08;88.82;100190.03;5006875;28;20046;-82
2021/12/23 08:10:08;;;;;;;36.72;20.20;;;2.80;94.00;;;1.10;89.41;100184.53;5007626;28;20065;-77
2021/12/23 08:12:36;;;;;;;37.47;19.40;;;2.80;94.10;;;1.13;89.68;100185.13;4990226;28;20093;-82
2021/12/23 08:15:04;;;;;;;40.85;21.55;;;2.80;94.10;;;1.13;89.26;100190.50;5008394;28;20065;-77
2021/12/23 08:17:31;;;;;;;37.35;19.42;;;2.80;94.00;;;1.16;89.21;100189.38;5008165;28;20129;-78
2021/12/23 08:20:00;;;;;;;37.05;19.77;;;2.90;93.90;;;1.18;89.15;100179.34;5007926;28;20046;-78
2021/12/23 08:22:27;;;;;;;35.55;18.70;;;2.90;94.10;;;1.17;89.14;100193.75;5006002;28;20128;-79
2021/12/23 08:24:54;;;;;;;38.20;20.00;;;2.90;94.10;;;1.15;89.29;100198.41;5008477;28;20140;-77
2021/12/23 08:27:25;;;;;;;42.67;22.15;;;2.90;94.30;;;1.18;88.99;100190.09;5007777;28;20117;-77
2021/12/23 08:29:53;;;;;;;37.30;20.55;;;2.90;93.80;;;1.25;89.49;100190.41;5007740;28;20818;-76
2021/12/23 08:32:21;;;;;;;39.10;20.40;;;2.90;94.00;;;1.26;88.93;100186.78;5007983;28;20056;-77
2021/12/23 08:34:49;;;;;;;36.72;20.60;;;2.90;94.00;;;1.26;89.46;100192.97;5008188;28;20168;-77
2021/12/23 08:37:18;;;;;;;39.10;19.77;;;3.00;94.00;;;1.25;88.96;100190.41;5007596;28;20066;-77
2021/12/23 08:39:47;;;;;;;35.17;19.35;;;3.00;93.90;;;1.22;87.80;100196.91;5007881;28;20065;-77
2021/12/23 08:42:15;;;;;;;41.45;19.13;;;3.00;93.70;;;1.31;88.88;100192.56;5007545;28;20050;-76
2021/12/23 08:44:42;;;;;;;35.38;19.02;;;3.00;94.00;;;1.33;88.45;100195.94;5007956;28;20051;-77
2021/12/23 08:47:11;;;;;;;35.17;18.60;;;3.00;93.70;;;1.34;88.08;100190.47;4989922;28;20077;-78
2021/12/23 08:49:39;;;;;;;40.20;19.90;;;3.00;93.60;;;1.40;88.12;100199.81;5004287;28;20096;-76
2021/12/23 08:52:07;;;;;;;36.78;18.75;;;3.00;93.40;;;1.38;88.29;100196.41;5007604;28;20045;-76
2021/12/23 08:54:35;;;;;;;37.72;18.98;;;3.10;93.80;;;1.42;88.67;100194.31;5007435;28;20104;-78
2021/12/23 08:57:04;;;;;;;33.22;18.90;;;3.10;93.80;;;1.47;89.44;100186.72;5008028;28;20041;-80
2021/12/23 08:59:32;;;;;;;35.28;19.40;;;3.10;93.70;;;1.49;87.69;100184.75;5007546;28;20070;-81
2021/12/23 09:01:59;;;;;;;34.00;18.55;;;3.10;93.50;;;1.51;88.55;100189.00;5008099;28;20046;-78
2021/12/23 09:04:27;;;;;;;35.08;18.98;;;3.10;93.30;;;1.46;88.48;100177.81;5007190;28;20092;-76
2021/12/23 09:06:54;;;;;;;37.10;19.25;;;3.20;93.30;;;1.51;87.49;100172.91;5007868;28;20052;-81
2021/12/23 09:09:23;;;;;;;33.83;18.60;;;3.40;93.50;;;1.53;87.67;100164.72;5007392;28;20549;-77
2021/12/23 09:11:52;;;;;;;34.13;18.65;;;3.20;93.10;;;1.51;86.37;100167.53;5006000;28;20060;-88
2021/12/23 09:14:20;;;;;;;34.70;18.60;;;3.30;92.80;;;1.58;86.59;100172.34;5007621;28;20700;-77
2021/12/23 09:16:47;;;;;;;35.97;18.35;;;3.30;92.50;;;1.61;86.78;100172.09;5006763;28;20121;-77
2021/12/23 09:19:15;;;;;;;34.95;18.42;;;3.30;92.50;;;1.65;87.03;100173.53;5007960;28;20859;-77
2021/12/23 09:21:42;;;;;;;31.83;17.95;;;3.30;92.50;;;1.70;86.67;100171.28;5011714;28;20045;-75
2021/12/23 09:24:10;;;;;;;35.17;17.35;;;3.30;92.40;;;1.72;85.90;100164.78;5011756;28;20418;-78
2021/12/23 09:26:47;;;;;;;31.42;16.08;;;3.40;91.80;;;1.75;85.50;100166.34;5010719;28;20049;-76
2021/12/23 09:32:39;;;;;;;30.08;16.70;;;3.40;91.90;;;1.78;85.77;100152.66;5011275;28;20049;-78
2021/12/23 09:34:54;;;;;;;31.85;17.52;;;3.60;91.50;;;1.89;84.88;100144.50;5011456;28;20115;-77
2021/12/23 09:37:22;;;;;;;30.58;17.75;;;3.50;90.90;;;1.92;84.63;100138.88;4992964;28;20054;-77
2021/12/23 09:39:53;;;;;;;33.10;17.88;;;3.60;91.30;;;1.95;84.23;100141.28;5011183;28;20048;-79
2021/12/23 09:42:23;;;;;;;;;;;3.60;91.00;;;1.93;84.32;100123.63;5011262;28;20129;-76
2021/12/23 09:44:56;;;;;;;41.05;18.48;;;3.60;90.80;;;1.94;84.93;100128.84;5010941;28;20012;-77
2021/12/23 09:47:27;;;;;;;33.50;17.75;;;3.70;90.80;;;1.98;84.00;100118.69;5011233;28;20038;-79
2021/12/23 09:49:56;;;;;;;33.28;17.35;;;3.70;91.10;;;2.01;84.37;100112.19;5011321;28;20100;-76
2021/12/23 09:52:26;;;;;;;33.33;18.00;;;3.70;90.80;;;2.08;85.49;100110.66;5009258;28;20045;-85
2021/12/23 09:54:58;;;;;;;34.78;18.98;;;3.70;91.20;;;2.09;84.68;100106.97;5010819;28;20069;-79
2021/12/23 09:57:25;;;;;;;33.35;17.23;;;3.70;91.20;;;2.11;83.95;100104.97;5011189;28;20046;-79
2021/12/23 09:59:54;;;;;;;31.63;17.95;;;3.80;91.10;;;2.09;84.83;100101.59;5009957;28;20119;-79
2021/12/23 10:02:22;;;;;;;33.30;16.85;;;3.80;91.20;;;2.14;84.83;100104.72;5010135;28;20053;-79
2021/12/23 10:04:49;;;;;;;30.55;16.92;;;3.80;91.20;;;2.21;85.10;100100.50;5010401;28;20510;-79
2021/12/23 10:07:18;;;;;;;30.80;16.17;;;3.80;90.70;;;2.24;84.85;100094.81;5011170;28;20123;-77
2021/12/23 10:09:52;;;;;;;32.95;16.98;;;3.80;90.90;;;2.30;85.37;100093.41;5008703;28;20080;-78
2021/12/23 10:31:59;;;;;;;29.55;15.15;;;4.20;89.90;;;2.61;82.15;100053.81;5008574;28;20450;-80
2021/12/23 10:37:21;;;;;;;26.83;14.55;;;4.20;89.10;;;2.65;81.15;100044.47;5010212;28;20069;-79
2021/12/23 10:39:54;;;;;;;28.92;14.82;;;4.30;89.70;;;2.73;82.33;100036.50;5009754;28;20037;-79
2021/12/23 10:42:24;;;;;;;29.90;14.93;;;4.30;88.60;;;2.78;82.28;100037.91;5008694;28;20095;-78
2021/12/23 10:44:54;;;;;;;27.48;15.20;;;4.30;89.20;;;2.80;81.51;100017.97;5009437;28;20463;-79
2021/12/23 10:47:38;;;;;;;26.85;15.32;;;4.40;87.90;;;2.87;81.19;100015.53;5010703;28;20462;-78
2021/12/23 10:50:24;;;;;;;26.70;15.43;;;4.40;88.60;;;2.92;80.17;100003.34;5009958;28;20060;-79